createdAt,value
2019-03-22T00:00:40.622Z,6.20
2019-03-22T00:03:11.767Z,6.10
2019-03-22T00:05:42.854Z,6.10
2019-03-22T00:08:13.965Z,6.10
2019-03-22T00:10:45.189Z,6.10
2019-03-22T00:13:16.394Z,6.10
2019-03-22T00:15:47.502Z,6.00
2019-03-22T00:18:19.032Z,6.00
2019-03-22T00:20:50.975Z,6.00
2019-03-22T00:23:22.490Z,6.00
2019-03-22T00:25:53.525Z,6.00
2019-03-22T00:28:24.886Z,6.00
2019-03-22T00:30:55.999Z,5.90
2019-03-22T00:33:27.107Z,5.90
2019-03-22T00:35:58.221Z,5.90
2019-03-22T00:38:29.249Z,5.90
2019-03-22T00:41:00.407Z,5.80
2019-03-22T00:43:31.436Z,5.80
2019-03-22T00:46:02.699Z,5.80
2019-03-22T00:48:33.808Z,5.80
2019-03-22T00:51:04.885Z,5.80
2019-03-22T00:53:36.301Z,5.70
2019-03-22T00:56:07.334Z,5.70
2019-03-22T00:58:38.467Z,5.70
2019-03-22T01:01:09.624Z,5.60
2019-03-22T01:03:40.676Z,5.60
2019-03-22T01:06:11.745Z,5.60
2019-03-22T01:08:42.908Z,5.50
2019-03-22T01:11:14.343Z,5.50
2019-03-22T01:13:45.697Z,5.50
2019-03-22T01:16:17.164Z,5.40
2019-03-22T01:18:48.332Z,5.40
2019-03-22T01:21:20.734Z,5.40
2019-03-22T01:23:52.224Z,5.40
2019-03-22T01:26:24.397Z,5.40
2019-03-22T01:28:55.460Z,5.40
2019-03-22T01:31:26.617Z,5.30
2019-03-22T01:33:57.833Z,5.30
2019-03-22T01:36:29.486Z,5.30
2019-03-22T01:39:00.830Z,5.30
2019-03-22T01:41:32.462Z,5.20
2019-03-22T01:44:03.676Z,5.20
2019-03-22T01:46:35.097Z,5.10
2019-03-22T01:49:06.184Z,5.10
2019-03-22T01:51:37.223Z,5.10
2019-03-22T01:54:08.594Z,5.00
2019-03-22T01:56:39.617Z,5.00
2019-03-22T01:59:10.794Z,5.00
2019-03-22T02:01:41.931Z,5.00
2019-03-22T02:04:13.099Z,5.00
2019-03-22T02:06:44.189Z,5.00
2019-03-22T02:09:15.247Z,5.00
2019-03-22T02:11:46.383Z,5.00
2019-03-22T02:14:18.577Z,4.90
2019-03-22T02:16:49.669Z,4.90
2019-03-22T02:19:20.744Z,4.90
2019-03-22T02:21:51.853Z,4.90
2019-03-22T02:24:22.961Z,4.90
2019-03-22T02:26:54.388Z,4.80
2019-03-22T02:29:25.520Z,4.80
2019-03-22T02:31:57.073Z,4.80
2019-03-22T02:34:28.090Z,4.70
2019-03-22T02:36:59.249Z,4.70
2019-03-22T02:39:30.702Z,4.70
2019-03-22T02:42:01.795Z,4.70
2019-03-22T02:44:32.982Z,4.70
2019-03-22T02:47:04.477Z,4.60
2019-03-22T02:49:35.567Z,4.70
2019-03-22T02:52:06.853Z,4.60
2019-03-22T02:54:37.972Z,4.60
2019-03-22T02:57:09.017Z,4.60
2019-03-22T02:59:41.177Z,4.60
2019-03-22T03:02:12.521Z,4.60
2019-03-22T03:04:43.565Z,4.60
2019-03-22T03:07:14.707Z,4.60
2019-03-22T03:09:45.821Z,4.50
2019-03-22T03:12:16.961Z,4.50
2019-03-22T03:14:48.142Z,4.50
2019-03-22T03:17:19.316Z,4.50
2019-03-22T03:19:50.319Z,4.50
2019-03-22T03:22:22.207Z,4.50
2019-03-22T03:24:53.761Z,4.50
2019-03-22T03:27:24.816Z,4.40
2019-03-22T03:29:56.024Z,4.50
2019-03-22T03:32:27.538Z,4.50
2019-03-22T03:34:58.891Z,4.40
2019-03-22T03:37:29.955Z,4.40
2019-03-22T03:40:01.312Z,4.40
2019-03-22T03:42:32.338Z,4.30
2019-03-22T03:45:03.667Z,4.30
2019-03-22T03:47:34.689Z,4.30
2019-03-22T03:50:06.943Z,4.30
2019-03-22T03:52:39.606Z,4.20
2019-03-22T03:55:11.030Z,4.20
2019-03-22T03:57:42.160Z,4.20
2019-03-22T04:00:13.653Z,4.20
2019-03-22T04:02:44.750Z,4.20
2019-03-22T04:05:15.761Z,4.10
2019-03-22T04:07:46.897Z,4.10
2019-03-22T04:10:18.189Z,4.10
2019-03-22T04:12:49.284Z,4.00
2019-03-22T04:15:20.397Z,4.00
2019-03-22T04:17:51.554Z,4.00
2019-03-22T04:20:23.031Z,4.10
2019-03-22T04:22:54.166Z,4.10
2019-03-22T04:25:25.732Z,4.20
2019-03-22T04:27:56.834Z,4.20
2019-03-22T04:30:27.918Z,4.20
2019-03-22T04:32:58.985Z,4.20
2019-03-22T04:35:30.125Z,4.10
2019-03-22T04:38:01.253Z,4.00
2019-03-22T04:40:32.289Z,3.90
2019-03-22T04:43:03.431Z,3.80
2019-03-22T04:45:36.632Z,3.70
2019-03-22T04:48:16.736Z,3.60
2019-03-22T04:50:50.129Z,3.40
2019-03-22T04:53:24.805Z,3.20
2019-03-22T04:55:59.611Z,3.10
2019-03-22T04:58:31.989Z,3.00
2019-03-22T05:01:04.537Z,3.00
2019-03-22T05:03:36.861Z,3.00
2019-03-22T05:06:09.533Z,2.90
2019-03-22T05:08:41.780Z,2.90
2019-03-22T05:11:14.205Z,2.90
2019-03-22T05:13:47.665Z,2.80
2019-03-22T05:16:20.857Z,2.80
2019-03-22T05:18:52.773Z,2.80
2019-03-22T05:21:27.670Z,2.80
2019-03-22T05:24:01.742Z,2.80
2019-03-22T05:26:35.254Z,2.70
2019-03-22T05:29:09.166Z,2.70
2019-03-22T05:32:15.069Z,2.70
2019-03-22T05:34:46.277Z,2.70
2019-03-22T05:37:17.409Z,2.70
2019-03-22T05:39:48.469Z,2.70
2019-03-22T05:42:21.372Z,2.70
2019-03-22T05:44:52.509Z,2.70
2019-03-22T05:47:23.747Z,2.70
2019-03-22T05:49:54.774Z,2.60
2019-03-22T05:52:25.798Z,2.60
2019-03-22T05:54:56.962Z,2.70
2019-03-22T05:57:28.064Z,2.70
2019-03-22T05:59:59.466Z,2.60
2019-03-22T06:02:30.883Z,2.60
2019-03-22T06:05:01.971Z,2.70
2019-03-22T06:07:33.050Z,2.70
2019-03-22T06:10:04.854Z,2.70
2019-03-22T06:12:35.899Z,2.80
2019-03-22T06:15:07.574Z,2.90
2019-03-22T06:17:38.654Z,2.90
2019-03-22T06:20:10.285Z,2.90
2019-03-22T06:22:41.608Z,3.00
2019-03-22T06:25:12.711Z,3.10
2019-03-22T06:27:43.681Z,3.10
2019-03-22T06:30:14.792Z,3.20
2019-03-22T06:32:44.532Z,3.20
2019-03-22T06:35:14.053Z,3.30
2019-03-22T06:37:44.888Z,3.30
2019-03-22T06:40:15.999Z,3.50
2019-03-22T06:42:48.387Z,3.70
2019-03-22T06:45:19.605Z,3.80
2019-03-22T06:47:50.605Z,3.90
2019-03-22T06:50:21.613Z,3.90
2019-03-22T06:52:52.720Z,4.00
2019-03-22T06:55:24.148Z,4.10
2019-03-22T06:57:55.274Z,4.20
2019-03-22T07:00:29.765Z,4.30
2019-03-22T07:03:00.792Z,4.40
2019-03-22T07:05:31.920Z,4.50
2019-03-22T07:08:03.252Z,4.60
2019-03-22T07:10:36.252Z,4.70
2019-03-22T07:13:07.225Z,4.80
2019-03-22T07:15:38.257Z,5.00
2019-03-22T07:18:09.396Z,5.00
2019-03-22T07:20:40.424Z,5.10
2019-03-22T07:23:13.798Z,5.20
2019-03-22T07:25:44.946Z,5.30
2019-03-22T07:28:16.413Z,5.40
2019-03-22T07:30:47.515Z,5.50
2019-03-22T07:33:18.497Z,5.50
2019-03-22T07:35:49.521Z,5.60
2019-03-22T07:38:20.604Z,5.70
2019-03-22T07:40:51.670Z,5.80
2019-03-22T07:43:22.773Z,5.90
2019-03-22T07:45:55.017Z,6.00
2019-03-22T07:48:26.080Z,6.10
2019-03-22T07:50:57.509Z,6.10
2019-03-22T07:53:28.518Z,6.20
2019-03-22T07:55:59.557Z,6.30
2019-03-22T07:58:31.598Z,6.30
2019-03-22T08:01:02.880Z,6.50
2019-03-22T08:03:34.247Z,6.50
2019-03-22T08:06:05.431Z,6.60
2019-03-22T08:08:37.594Z,6.70
2019-03-22T08:11:08.724Z,6.80
2019-03-22T08:13:40.133Z,6.90
2019-03-22T08:16:11.176Z,7.00
2019-03-22T08:18:42.205Z,7.20
2019-03-22T08:21:13.209Z,7.40
2019-03-22T08:23:44.230Z,7.60
2019-03-22T08:26:15.280Z,7.70
2019-03-22T08:28:46.357Z,7.70
2019-03-22T08:31:17.405Z,7.70
2019-03-22T08:33:48.669Z,7.80
2019-03-22T08:36:19.737Z,7.90
2019-03-22T08:38:50.760Z,8.00
2019-03-22T08:41:23.835Z,8.00
2019-03-22T08:43:54.572Z,8.10
2019-03-22T08:46:25.634Z,8.20
2019-03-22T08:48:56.967Z,8.30
2019-03-22T08:51:29.865Z,8.40
2019-03-22T08:54:01.221Z,8.50
2019-03-22T08:56:32.364Z,8.60
2019-03-22T08:59:03.469Z,8.70
2019-03-22T09:01:34.567Z,8.80
2019-03-22T09:04:05.671Z,8.90
2019-03-22T09:06:36.822Z,9.00
2019-03-22T09:09:08.651Z,9.20
2019-03-22T09:11:39.754Z,9.30
2019-03-22T09:14:10.825Z,9.40
2019-03-22T09:16:41.914Z,9.50
2019-03-22T09:19:13.185Z,9.60
2019-03-22T09:21:44.706Z,9.60
2019-03-22T09:24:15.744Z,9.70
2019-03-22T09:26:47.911Z,9.80
2019-03-22T09:29:19.675Z,9.90
2019-03-22T09:31:53.571Z,10.00
2019-03-22T09:34:33.120Z,10.20
2019-03-22T09:36:56.985Z,10.30
2019-03-22T09:39:28.048Z,10.50
2019-03-22T09:41:59.082Z,10.60
2019-03-22T09:44:42.339Z,10.80
2019-03-22T09:47:02.876Z,10.90
2019-03-22T09:49:34.214Z,11.00
2019-03-22T09:52:05.557Z,11.20
2019-03-22T09:54:36.616Z,11.30
2019-03-22T09:57:08.713Z,11.50
2019-03-22T09:59:39.841Z,11.70
2019-03-22T10:02:19.269Z,11.90
2019-03-22T10:04:53.382Z,12.10
2019-03-22T10:07:24.559Z,12.30
2019-03-22T10:09:55.726Z,12.60
2019-03-22T10:12:27.563Z,12.80
2019-03-22T10:14:58.649Z,13.00
2019-03-22T10:17:29.757Z,13.20
2019-03-22T10:20:00.812Z,13.40
2019-03-22T10:22:31.837Z,13.70
2019-03-22T10:25:03.394Z,13.90
2019-03-22T10:27:34.446Z,14.10
2019-03-22T10:30:06.881Z,14.30
2019-03-22T10:32:38.572Z,14.60
2019-03-22T10:35:10.413Z,14.90
2019-03-22T10:37:41.520Z,15.30
2019-03-22T10:40:12.640Z,15.70
2019-03-22T10:42:43.801Z,16.20
2019-03-22T10:45:14.990Z,16.70
2019-03-22T10:47:46.019Z,17.10
2019-03-22T10:50:17.131Z,17.50
2019-03-22T10:52:48.477Z,17.90
2019-03-22T10:55:29.877Z,18.30
2019-03-22T10:57:55.487Z,18.80
2019-03-22T11:00:25.642Z,19.10
2019-03-22T11:02:56.651Z,19.40
2019-03-22T11:05:27.779Z,19.70
2019-03-22T11:07:58.833Z,20.00
2019-03-22T11:10:29.853Z,20.20
2019-03-22T11:13:00.970Z,20.70
2019-03-22T11:15:33.288Z,21.00
2019-03-22T11:18:04.533Z,21.30
2019-03-22T11:20:35.957Z,21.60
2019-03-22T11:23:07.108Z,21.70
2019-03-22T11:25:38.482Z,21.80
2019-03-22T11:28:09.677Z,22.00
2019-03-22T11:30:40.832Z,22.30
2019-03-22T11:33:11.888Z,22.40
2019-03-22T11:35:43.204Z,22.80
2019-03-22T11:38:14.401Z,23.00
2019-03-22T11:40:46.998Z,23.30
2019-03-22T11:43:18.345Z,23.50
2019-03-22T11:45:49.354Z,23.50
2019-03-22T11:48:20.529Z,23.60
2019-03-22T11:50:51.622Z,23.90
2019-03-22T11:53:22.765Z,24.10
2019-03-22T11:55:54.862Z,24.20
2019-03-22T11:58:25.936Z,24.30
2019-03-22T12:00:56.991Z,24.40
2019-03-22T12:03:28.042Z,24.60
2019-03-22T12:05:59.068Z,24.90
2019-03-22T12:08:30.129Z,25.20
2019-03-22T12:11:01.333Z,25.40
2019-03-22T12:13:34.623Z,25.70
2019-03-22T12:16:05.260Z,25.90
2019-03-22T12:18:36.407Z,26.00
2019-03-22T12:21:07.565Z,26.30
2019-03-22T12:23:38.877Z,26.30
2019-03-22T12:26:09.998Z,26.40
2019-03-22T12:28:41.471Z,26.30
2019-03-22T12:31:12.617Z,26.40
2019-03-22T12:33:44.037Z,26.50
2019-03-22T12:36:15.078Z,26.60
2019-03-22T12:38:46.205Z,26.80
2019-03-22T12:41:17.253Z,27.10
2019-03-22T12:43:48.356Z,27.00
2019-03-22T12:46:19.372Z,27.10
2019-03-22T12:48:50.580Z,27.30
2019-03-22T12:51:21.716Z,27.60
2019-03-22T12:53:52.766Z,27.60
2019-03-22T12:56:24.079Z,27.70
2019-03-22T12:58:55.175Z,27.90
2019-03-22T13:01:26.219Z,28.00
2019-03-22T13:03:57.357Z,28.30
2019-03-22T13:06:28.429Z,28.70
2019-03-22T13:09:05.257Z,28.70
2019-03-22T13:11:37.570Z,28.80
2019-03-22T13:14:08.702Z,28.70
2019-03-22T13:16:39.792Z,28.70
2019-03-22T13:19:10.842Z,28.80
2019-03-22T13:21:42.940Z,29.10
2019-03-22T13:24:13.982Z,29.30
2019-03-22T13:26:45.125Z,29.30
2019-03-22T13:29:16.539Z,29.40
2019-03-22T13:31:47.585Z,29.50
2019-03-22T13:34:19.289Z,29.80
2019-03-22T13:36:50.360Z,29.90
2019-03-22T13:39:21.406Z,29.90
2019-03-22T13:41:52.489Z,29.90
2019-03-22T13:44:23.898Z,29.90
2019-03-22T13:46:55.008Z,29.90
2019-03-22T13:49:26.128Z,29.90
2019-03-22T13:51:57.194Z,29.90
2019-03-22T13:54:28.337Z,29.90
2019-03-22T13:56:59.589Z,29.70
2019-03-22T13:59:30.767Z,29.50
2019-03-22T14:02:02.352Z,29.60
2019-03-22T14:04:33.522Z,29.70
2019-03-22T14:07:04.665Z,29.80
2019-03-22T14:09:36.801Z,29.80
2019-03-22T14:12:07.845Z,29.80
2019-03-22T14:14:38.902Z,29.70
2019-03-22T14:17:09.960Z,29.50
2019-03-22T14:19:41.050Z,29.40
2019-03-22T14:22:12.097Z,29.30
2019-03-22T14:24:43.120Z,29.00
2019-03-22T14:27:14.246Z,28.70
2019-03-22T14:29:45.407Z,27.90
2019-03-22T14:32:16.545Z,27.00
2019-03-22T14:34:47.561Z,26.20
2019-03-22T14:37:19.569Z,25.50
2019-03-22T14:39:51.317Z,25.10
2019-03-22T14:42:22.764Z,24.90
2019-03-22T14:44:54.243Z,24.90
2019-03-22T14:47:25.260Z,24.90
2019-03-22T14:49:56.345Z,25.10
2019-03-22T14:52:27.875Z,25.60
2019-03-22T14:54:59.013Z,26.20
2019-03-22T14:57:30.043Z,26.80
2019-03-22T15:00:01.158Z,27.20
2019-03-22T15:02:32.935Z,27.40
2019-03-22T15:05:04.630Z,27.60
2019-03-22T15:07:36.181Z,27.90
2019-03-22T15:10:07.722Z,28.30
2019-03-22T15:12:38.824Z,28.70
2019-03-22T15:15:18.194Z,29.00
2019-03-22T15:18:06.828Z,29.10
2019-03-22T15:20:55.960Z,29.20
2019-03-22T15:23:45.129Z,29.30
2019-03-22T15:26:35.250Z,29.40
2019-03-22T15:29:28.679Z,29.60
2019-03-22T15:32:17.495Z,29.60
2019-03-22T15:35:13.873Z,29.00
2019-03-22T15:38:05.148Z,28.50
2019-03-22T15:40:36.278Z,27.90
2019-03-22T15:43:07.471Z,27.00
2019-03-22T15:45:38.849Z,26.40
2019-03-22T15:48:09.996Z,25.90
2019-03-22T15:50:41.046Z,25.50
2019-03-22T15:53:12.073Z,25.10
2019-03-22T15:55:43.441Z,24.60
2019-03-22T15:58:14.809Z,24.30
2019-03-22T16:00:45.873Z,24.10
2019-03-22T16:03:17.304Z,23.70
2019-03-22T16:05:48.339Z,23.30
2019-03-22T16:08:19.639Z,23.00
2019-03-22T16:10:50.650Z,22.50
2019-03-22T16:13:22.147Z,22.30
2019-03-22T16:15:53.180Z,22.10
2019-03-22T16:18:24.261Z,21.90
2019-03-22T16:20:59.980Z,21.90
2019-03-22T16:23:28.419Z,21.90
2019-03-22T16:25:59.830Z,21.90
2019-03-22T16:28:30.862Z,21.90
2019-03-22T16:31:02.091Z,22.00
2019-03-22T16:33:34.088Z,22.20
2019-03-22T16:36:05.348Z,22.30
2019-03-22T16:38:36.378Z,22.50
2019-03-22T16:41:07.499Z,22.50
2019-03-22T16:43:38.673Z,22.00
2019-03-22T16:46:10.631Z,21.50
2019-03-22T16:48:41.667Z,21.00
2019-03-22T16:51:12.734Z,20.60
2019-03-22T16:53:43.910Z,20.20
2019-03-22T16:56:15.330Z,19.90
2019-03-22T16:58:46.384Z,19.50
2019-03-22T17:01:17.408Z,19.30
2019-03-22T17:03:48.457Z,19.10
2019-03-22T17:06:19.538Z,18.90
2019-03-22T17:08:51.668Z,18.70
2019-03-22T17:11:39.872Z,18.40
2019-03-22T17:14:10.959Z,18.30
2019-03-22T17:16:41.984Z,18.00
2019-03-22T17:19:13.040Z,17.80
2019-03-22T17:21:44.197Z,17.70
2019-03-22T17:24:15.262Z,17.50
2019-03-22T17:26:46.298Z,17.30
2019-03-22T17:29:17.317Z,17.20
2019-03-22T17:31:48.382Z,17.00
2019-03-22T17:34:19.581Z,16.80
2019-03-22T17:36:50.954Z,16.60
2019-03-22T17:39:22.016Z,16.40
2019-03-22T17:41:53.052Z,16.20
2019-03-22T17:44:25.265Z,16.00
2019-03-22T17:46:56.322Z,15.90
2019-03-22T17:49:27.474Z,15.70
2019-03-22T17:51:58.476Z,15.60
2019-03-22T17:54:29.560Z,15.40
2019-03-22T17:57:00.790Z,15.30
2019-03-22T17:59:31.902Z,15.20
2019-03-22T18:02:02.918Z,15.10
2019-03-22T18:04:34.167Z,15.00
2019-03-22T18:07:05.408Z,14.80
2019-03-22T18:09:36.465Z,14.70
2019-03-22T18:12:07.506Z,14.60
2019-03-22T18:14:38.618Z,14.50
2019-03-22T18:17:09.638Z,14.40
2019-03-22T18:19:40.750Z,14.30
2019-03-22T18:22:12.433Z,14.20
2019-03-22T18:24:43.645Z,14.20
2019-03-22T18:27:15.116Z,14.00
2019-03-22T18:29:46.126Z,13.90
2019-03-22T18:32:17.132Z,13.90
2019-03-22T18:34:48.212Z,13.80
2019-03-22T18:37:19.248Z,13.80
2019-03-22T18:39:50.256Z,13.70
2019-03-22T18:42:21.331Z,13.60
2019-03-22T18:44:52.398Z,13.50
2019-03-22T18:47:23.444Z,13.50
2019-03-22T18:49:54.525Z,13.40
2019-03-22T18:52:25.598Z,13.40
2019-03-22T18:54:56.749Z,13.40
2019-03-22T18:57:27.810Z,13.30
2019-03-22T18:59:58.846Z,13.30
2019-03-22T19:02:29.857Z,13.20
2019-03-22T19:05:00.882Z,13.10
2019-03-22T19:07:32.141Z,13.10
2019-03-22T19:10:03.329Z,13.00
2019-03-22T19:12:34.331Z,12.90
2019-03-22T19:15:06.704Z,12.80
2019-03-22T19:17:37.866Z,12.70
2019-03-22T19:20:10.110Z,12.60
2019-03-22T19:22:41.224Z,12.40
2019-03-22T19:25:17.094Z,12.30
2019-03-22T19:27:48.239Z,12.20
2019-03-22T19:30:19.312Z,12.20
2019-03-22T19:32:50.335Z,12.10
2019-03-22T19:35:21.872Z,12.10
2019-03-22T19:37:52.931Z,12.00
2019-03-22T19:40:24.239Z,11.90
2019-03-22T19:42:55.250Z,11.90
2019-03-22T19:45:26.292Z,11.80
2019-03-22T19:47:57.393Z,11.80
2019-03-22T19:50:28.516Z,11.70
2019-03-22T19:52:59.929Z,11.70
2019-03-22T19:55:32.099Z,11.60
2019-03-22T19:58:03.107Z,11.60
2019-03-22T20:00:34.173Z,11.60
2019-03-22T20:03:05.173Z,11.50
2019-03-22T20:05:36.239Z,11.40
2019-03-22T20:08:07.281Z,11.40
2019-03-22T20:10:38.607Z,11.30
2019-03-22T20:13:11.099Z,11.30
2019-03-22T20:15:42.121Z,11.20
2019-03-22T20:18:13.172Z,11.20
2019-03-22T20:20:57.525Z,11.20
2019-03-22T20:23:27.499Z,11.10
2019-03-22T20:25:57.076Z,11.00
2019-03-22T20:28:27.933Z,11.00
2019-03-22T20:30:59.044Z,11.00
2019-03-22T20:33:30.073Z,11.00
2019-03-22T20:36:01.123Z,10.90
2019-03-22T20:38:32.149Z,10.80
2019-03-22T20:41:03.183Z,10.70
2019-03-22T20:43:34.204Z,10.50
2019-03-22T20:46:05.318Z,10.40
2019-03-22T20:48:36.309Z,10.40
2019-03-22T20:51:07.644Z,10.40
2019-03-22T20:53:38.963Z,10.30
2019-03-22T20:56:10.032Z,10.30
2019-03-22T20:58:41.001Z,10.30
2019-03-22T21:01:12.116Z,10.20
2019-03-22T21:03:43.129Z,10.10
2019-03-22T21:06:14.156Z,10.00
2019-03-22T21:08:45.166Z,10.00
2019-03-22T21:11:16.209Z,9.90
2019-03-22T21:13:47.229Z,9.90
2019-03-22T21:16:18.311Z,9.80
2019-03-22T21:18:49.309Z,9.80
2019-03-22T21:21:20.377Z,9.70
2019-03-22T21:23:51.809Z,9.70
2019-03-22T21:26:22.849Z,9.60
2019-03-22T21:28:53.946Z,9.60
2019-03-22T21:31:25.008Z,9.50
2019-03-22T21:33:56.372Z,9.40
2019-03-22T21:36:27.464Z,9.40
2019-03-22T21:38:58.480Z,9.40
2019-03-22T21:41:29.644Z,9.40
2019-03-22T21:44:00.652Z,9.30
2019-03-22T21:46:31.782Z,9.30
2019-03-22T21:49:02.780Z,9.20
2019-03-22T21:51:41.944Z,9.20
2019-03-22T21:54:12.936Z,9.10
2019-03-22T21:56:43.928Z,9.10
2019-03-22T21:59:14.991Z,9.00
2019-03-22T22:01:46.130Z,9.00
2019-03-22T22:04:17.514Z,9.00
2019-03-22T22:06:48.653Z,8.90
2019-03-22T22:09:19.704Z,8.90
2019-03-22T22:11:50.761Z,8.80
2019-03-22T22:14:21.853Z,8.90
2019-03-22T22:16:52.952Z,8.90
2019-03-22T22:19:24.263Z,9.00
2019-03-22T22:21:55.220Z,9.00
2019-03-22T22:24:26.364Z,9.10
2019-03-22T22:26:57.568Z,9.10
2019-03-22T22:29:28.785Z,9.10
2019-03-22T22:31:59.788Z,9.00
2019-03-22T22:34:32.219Z,8.90
2019-03-22T22:37:03.418Z,8.80
2019-03-22T22:39:35.476Z,8.80
2019-03-22T22:42:06.470Z,8.70
2019-03-22T22:44:37.520Z,8.70
2019-03-22T22:47:08.656Z,8.60
2019-03-22T22:49:39.961Z,8.60
2019-03-22T22:52:11.144Z,8.50
2019-03-22T22:54:42.251Z,8.50
2019-03-22T22:57:13.233Z,8.40
2019-03-22T22:59:44.363Z,8.40
2019-03-22T23:02:15.395Z,8.30
2019-03-22T23:04:46.428Z,8.20
2019-03-22T23:07:17.506Z,8.10
2019-03-22T23:09:48.562Z,8.00
2019-03-22T23:12:19.562Z,8.00
2019-03-22T23:14:51.640Z,8.00
2019-03-22T23:17:22.695Z,7.90
2019-03-22T23:19:53.781Z,7.90
2019-03-22T23:22:25.089Z,7.90
2019-03-22T23:24:56.109Z,7.90
2019-03-22T23:27:27.394Z,7.90
2019-03-22T23:29:59.844Z,7.80
2019-03-22T23:32:30.912Z,7.80
2019-03-22T23:35:01.986Z,7.70
2019-03-22T23:37:33.253Z,7.70
2019-03-22T23:40:04.275Z,7.70
2019-03-22T23:42:35.375Z,7.70
2019-03-22T23:45:07.284Z,7.60
2019-03-22T23:47:38.309Z,7.60
2019-03-22T23:50:10.513Z,7.50
2019-03-22T23:52:41.614Z,7.50
2019-03-22T23:55:12.925Z,7.50
2019-03-22T23:57:43.915Z,7.50
